Rabbs Prairie, Texas
Current Conditions -  °F | °C
As of 12:55 AM on Thursday 23 Oct 2014 (Local Time) from K3T5 Reporting Station
Clear Clear  
Wind Chill: 68°   Ceiling: Unl
Heat Index: 68°   Visibility: 10mi
Dew Point: 62°   Wind: 0mph
Humidity: 79%   Direction: NA
Pressure: 30.07"   Gusts: NA
Location:  29.8569°N, 96.9311°W
Report Text: K3T5 230555Z AUTO 00000KT 10SM CLR 20/16 A3007 RMK AO2 T02010164 10245 20188 402850142
Loading
Personal Weather Stations






























Interactive Weather Map
Tropical Storm Tracking
New forecast layout! Learn more

10-Day Weather Forecast

Advertisements
Track Severe Weather on mobile